Time;durP1;ratioP1;P1;durP2;ratioP2;P2;SDS_P1;SDS_P2;PMS_P1;PMS_P2;Temp;Humidity;BMP_temperature;BMP_pressure;BME280_temperature;BME280_humidity;BME280_pressure;Samples;Min_cycle;Max_cycle;Signal;HPM_P1;HPM_P2
2024/03/15 00:02:22;;;;;;;50.80;35.00;;;;;;;9.59;82.99;100682.27;106959;1312;22246;-61
2024/03/15 00:04:47;;;;;;;48.30;34.40;;;;;;;9.60;82.91;100678.81;107049;1298;22204;-61
2024/03/15 00:07:13;;;;;;;47.80;34.00;;;;;;;9.58;82.68;100673.66;107026;1313;22227;-62
2024/03/15 00:09:39;;;;;;;53.70;35.70;;;;;;;9.59;82.45;100675.89;106896;1319;21817;-62
2024/03/15 00:12:05;;;;;;;44.50;34.50;;;;;;;9.59;82.58;100676.23;107038;1319;22244;-62
2024/03/15 00:14:31;;;;;;;55.10;34.80;;;;;;;9.60;82.70;100670.73;107005;1302;22445;-62
2024/03/15 00:16:56;;;;;;;49.70;34.30;;;;;;;9.62;82.61;100665.88;107000;1320;22254;-62
2024/03/15 00:19:22;;;;;;;47.50;33.20;;;;;;;9.63;82.75;100666.55;107041;1321;22382;-62
2024/03/15 00:21:49;;;;;;;49.40;33.80;;;;;;;9.65;82.59;100671.19;106313;1313;22778;-61
2024/03/15 00:24:16;;;;;;;47.20;34.00;;;;;;;9.63;82.72;100667.76;105753;1302;22690;-62
2024/03/15 00:26:45;;;;;;;50.60;33.30;;;;;;;9.64;82.48;100661.39;105782;1320;22600;-61
2024/03/15 00:29:10;;;;;;;46.40;33.90;;;;;;;9.64;82.72;100661.38;105756;1320;22587;-61
2024/03/15 00:31:41;;;;;;;49.00;33.60;;;;;;;9.61;83.14;100662.79;105721;1312;22964;-62
2024/03/15 00:34:07;;;;;;;46.30;34.30;;;;;;;9.59;82.66;100657.82;105818;1297;22504;-61
2024/03/15 00:36:35;;;;;;;57.20;36.40;;;;;;;9.59;83.01;100655.93;105831;1314;22575;-62
2024/03/15 00:39:03;;;;;;;48.10;34.00;;;;;;;9.58;83.17;100654.91;105822;1315;22604;-62
2024/03/15 00:41:29;;;;;;;50.30;35.40;;;;;;;9.56;82.90;100649.94;105841;1320;22622;-61
2024/03/15 00:43:55;;;;;;;48.30;33.60;;;;;;;9.56;82.83;100649.95;105778;1300;22622;-62
2024/03/15 00:46:24;;;;;;;43.80;31.10;;;;;;;9.54;83.28;100648.59;105655;1297;22580;-61
2024/03/15 00:48:53;;;;;;;47.40;32.80;;;;;;;9.52;83.02;100642.07;105826;1320;22635;-61
2024/03/15 00:51:19;;;;;;;43.90;31.90;;;;;;;9.53;83.08;100639.83;105844;1313;22611;-61
2024/03/15 00:53:46;;;;;;;50.10;33.60;;;;;;;9.53;84.27;100638.27;105846;1320;22620;-61
2024/03/15 00:56:12;;;;;;;53.40;33.40;;;;;;;9.52;83.65;100638.80;105787;1306;22584;-61
2024/03/15 00:58:38;;;;;;;51.50;33.00;;;;;;;9.53;83.32;100638.63;105908;1320;22724;-62
2024/03/15 01:01:10;;;;;;;54.20;34.70;;;;;;;9.54;83.23;100636.38;105627;1313;22542;-62
2024/03/15 01:03:39;;;;;;;49.20;34.20;;;;;;;9.54;83.07;100636.88;106912;1321;22252;-62
2024/03/15 01:06:04;;;;;;;48.40;33.30;;;;;;;9.55;83.34;100638.08;106993;1301;22237;-61
2024/03/15 01:08:30;;;;;;;45.60;32.60;;;;;;;9.56;83.27;100635.48;107028;1317;22336;-61
2024/03/15 01:10:56;;;;;;;49.40;32.30;;;;;;;9.58;83.88;100632.88;107022;1314;22222;-61
2024/03/15 01:13:21;;;;;;;44.80;33.10;;;;;;;9.59;84.18;100632.00;106939;1321;22467;-60
2024/03/15 01:15:47;;;;;;;43.90;32.60;;;;;;;9.60;83.71;100627.70;106997;1301;22424;-62
2024/03/15 01:18:13;;;;;;;48.70;32.50;;;;;;;9.62;83.74;100623.20;107016;1314;22238;-62
2024/03/15 01:20:39;;;;;;;54.20;32.90;;;;;;;9.63;83.49;100617.50;107045;1319;22289;-62
2024/03/15 01:23:05;;;;;;;43.90;30.90;;;;;;;9.63;83.61;100616.64;107029;1313;22333;-62
2024/03/15 01:25:31;;;;;;;43.70;32.00;;;;;;;9.64;83.62;100615.09;106839;1306;22334;-62
2024/03/15 01:27:57;;;;;;;49.50;32.70;;;;;;;9.64;84.29;100614.75;107019;1320;22257;-61
2024/03/15 01:30:23;;;;;;;44.70;31.00;;;;;;;9.63;84.28;100612.86;107039;1320;22222;-62
2024/03/15 01:32:49;;;;;;;46.70;33.10;;;;;;;9.62;84.35;100607.36;107047;1320;22258;-62
2024/03/15 01:35:16;;;;;;;42.00;30.90;;;;;;;9.61;84.22;100606.34;106991;1297;22328;-62
2024/03/15 01:37:43;;;;;;;53.90;33.10;;;;;;;9.60;84.45;100606.02;107017;1320;22354;-62
2024/03/15 01:40:10;;;;;;;44.70;31.30;;;;;;;9.60;84.69;100603.08;103033;1319;5003979;-61
2024/03/15 01:42:36;;;;;;;43.10;31.60;;;;;;;9.58;84.39;100599.48;107058;1319;22579;-60
2024/03/15 01:45:03;;;;;;;47.70;31.70;;;;;;;9.59;84.18;100601.73;107010;1298;22181;-61
2024/03/15 01:47:30;;;;;;;48.50;32.20;;;;;;;9.58;84.45;100606.38;106985;1302;22258;-62
2024/03/15 01:49:57;;;;;;;45.10;32.20;;;;;;;9.59;84.44;100603.61;107040;1320;23130;-62
2024/03/15 01:52:26;;;;;;;50.50;32.00;;;;;;;9.59;84.15;100604.30;106910;1321;22889;-60
2024/03/15 01:54:52;;;;;;;47.10;32.50;;;;;;;9.59;84.22;100604.48;107038;1317;22232;-62
2024/03/15 01:57:19;;;;;;;51.30;33.60;;;;;;;9.59;83.99;100601.03;107037;1302;22255;-62
2024/03/15 01:59:44;;;;;;;;;;;;;;;9.58;84.72;100598.80;107086;1319;22493;-62
2024/03/15 02:02:13;;;;;;;52.20;32.90;;;;;;;9.58;84.84;100605.86;107039;1313;22291;-61
2024/03/15 02:04:41;;;;;;;53.50;33.60;;;;;;;9.56;85.33;100604.67;106814;1315;22561;-62
2024/03/15 02:07:10;;;;;;;53.80;33.20;;;;;;;9.55;85.05;100605.73;105688;1303;22725;-62
2024/03/15 02:09:38;;;;;;;47.30;33.70;;;;;;;9.55;84.71;100602.11;105794;1313;22570;-62
2024/03/15 02:12:04;;;;;;;53.10;33.40;;;;;;;9.55;85.60;100600.05;105733;1320;23150;-61
2024/03/15 02:14:30;;;;;;;50.20;33.10;;;;;;;9.54;85.78;100596.95;105909;1320;22576;-61
2024/03/15 02:16:56;;;;;;;49.70;32.90;;;;;;;9.54;85.48;100596.44;105824;1311;22514;-62
2024/03/15 02:19:22;;;;;;;51.90;33.80;;;;;;;9.54;84.88;100589.05;105849;1314;22569;-62
2024/03/15 02:21:48;;;;;;;51.30;33.30;;;;;;;9.52;85.03;100589.77;105843;1313;22695;-62
2024/03/15 02:24:15;;;;;;;51.90;33.60;;;;;;;9.50;84.76;100586.68;105838;1320;22594;-62
2024/03/15 02:26:43;;;;;;;53.10;34.10;;;;;;;9.50;84.94;100587.38;105922;1302;22778;-62
2024/03/15 02:29:09;;;;;;;46.10;31.50;;;;;;;9.49;84.55;100587.04;105853;1319;22670;-62
2024/03/15 02:31:38;;;;;;;51.80;32.60;;;;;;;9.48;84.80;100586.88;105792;1313;22610;-62
2024/03/15 02:34:04;;;;;;;47.90;31.70;;;;;;;9.47;84.96;100585.17;105854;1320;22736;-61
2024/03/15 02:36:30;;;;;;;51.00;32.00;;;;;;;9.45;85.38;100585.37;105909;1301;23121;-62
2024/03/15 02:38:56;;;;;;;54.40;32.80;;;;;;;9.45;85.09;100587.27;105942;1318;23571;-62
2024/03/15 02:41:22;;;;;;;50.80;32.30;;;;;;;9.46;85.24;100588.63;106930;1320;22352;-62
2024/03/15 02:43:48;;;;;;;52.50;33.90;;;;;;;9.47;85.31;100586.04;107042;1314;22364;-62
2024/03/15 02:46:15;;;;;;;46.00;31.90;;;;;;;9.48;85.35;100586.54;107024;1299;22414;-62
2024/03/15 02:48:41;;;;;;;46.60;31.00;;;;;;;9.48;85.53;100588.25;106857;1313;22419;-62
2024/03/15 02:51:06;;;;;;;46.60;31.70;;;;;;;9.50;85.63;100587.37;107026;1320;22740;-61
2024/03/15 02:53:32;;;;;;;44.60;30.00;;;;;;;9.51;85.50;100587.02;106703;1313;22584;-62
2024/03/15 02:56:00;;;;;;;48.00;31.50;;;;;;;9.51;85.30;100584.95;105856;1320;23044;-62
2024/03/15 02:58:27;;;;;;;46.00;32.10;;;;;;;9.52;85.31;100584.08;105778;1303;22586;-62
2024/03/15 03:00:54;;;;;;;;;;;;;;;9.53;85.11;100584.23;105854;1313;22540;-62
2024/03/15 03:03:20;;;;;;;;;;;;;;;9.52;85.31;100583.39;105866;1320;22545;-61
2024/03/15 03:05:46;;;;;;;46.90;30.90;;;;;;;9.54;85.26;100584.92;105889;1313;22600;-62
2024/03/15 03:08:12;;;;;;;49.80;31.00;;;;;;;9.54;85.83;100584.73;105887;1301;22599;-61
2024/03/15 03:10:37;;;;;;;47.40;30.40;;;;;;;9.54;85.77;100587.33;105692;1321;23011;-61
2024/03/15 03:13:03;;;;;;;45.10;31.30;;;;;;;9.55;85.30;100586.45;105808;1313;23136;-61
2024/03/15 03:15:29;;;;;;;54.10;31.90;;;;;;;9.55;85.21;100586.28;105829;1319;22624;-61
2024/03/15 03:17:56;;;;;;;47.30;31.80;;;;;;;9.54;85.24;100584.05;105825;1300;22589;-60
2024/03/15 03:20:23;;;;;;;47.60;31.70;;;;;;;9.52;86.03;100580.29;106980;1320;22289;-61
2024/03/15 03:22:50;;;;;;;49.10;32.30;;;;;;;9.51;85.88;100580.99;106992;1319;22274;-61
2024/03/15 03:25:16;;;;;;;44.90;30.50;;;;;;;9.51;85.72;100583.75;107047;1320;21999;-61
2024/03/15 03:27:42;;;;;;;51.70;31.50;;;;;;;9.53;85.79;100581.14;106789;1306;22591;-59
2024/03/15 03:30:09;;;;;;;48.20;31.90;;;;;;;9.55;85.50;100577.16;105824;1313;22574;-61
2024/03/15 03:32:35;;;;;;;43.80;29.20;;;;;;;9.56;85.95;100576.80;105942;1313;22523;-62
2024/03/15 03:35:05;;;;;;;50.10;31.70;;;;;;;9.55;85.71;100576.98;105955;1320;22736;-62
2024/03/15 03:37:33;;;;;;;50.50;30.20;;;;;;;9.55;85.63;100571.31;106005;1304;22600;-62
2024/03/15 03:39:59;;;;;;;48.30;31.00;;;;;;;9.56;85.57;100572.49;105919;1313;22200;-62
2024/03/15 03:42:27;;;;;;;45.90;29.30;;;;;;;9.56;85.68;100569.56;105920;1319;22893;-62
2024/03/15 03:44:57;;;;;;;50.50;31.70;;;;;;;9.56;85.69;100567.17;105912;1310;22705;-62
2024/03/15 03:47:23;;;;;;;45.90;29.20;;;;;;;9.55;85.28;100568.05;105830;1320;22653;-62
2024/03/15 03:49:51;;;;;;;49.60;29.90;;;;;;;9.54;85.36;100561.52;105793;1320;23644;-61
2024/03/15 03:52:17;;;;;;;46.40;31.50;;;;;;;9.52;85.33;100559.81;105922;1310;22623;-62
2024/03/15 03:54:43;;;;;;;51.20;31.70;;;;;;;9.53;85.24;100558.95;105827;1320;23504;-62
2024/03/15 03:57:28;;;;;;;46.10;29.50;;;;;;;9.52;85.32;100561.02;105915;1313;25276;-60
2024/03/15 03:59:54;;;;;;;52.60;33.10;;;;;;;9.51;85.15;100560.52;105885;1312;22605;-62
2024/03/15 04:02:20;;;;;;;50.50;31.10;;;;;;;9.52;85.02;100563.79;105924;1320;22582;-61
2024/03/15 04:04:46;;;;;;;47.40;30.90;;;;;;;9.51;85.12;100565.34;106973;1320;22277;-62
2024/03/15 04:07:12;;;;;;;53.10;34.50;;;;;;;9.50;84.93;100566.39;103288;1317;5003317;-62
2024/03/15 04:09:38;;;;;;;51.00;33.30;;;;;;;9.49;84.94;100563.98;106991;1303;22116;-61
2024/03/15 04:12:04;;;;;;;53.90;32.70;;;;;;;9.48;84.84;100565.20;107008;1318;22452;-62
2024/03/15 04:14:33;;;;;;;56.40;32.60;;;;;;;9.48;84.81;100565.04;107018;1321;22444;-62
2024/03/15 04:16:59;;;;;;;52.40;32.80;;;;;;;9.46;84.81;100563.16;106969;1319;22266;-62
2024/03/15 04:19:25;;;;;;;49.50;30.50;;;;;;;9.47;84.76;100565.91;105880;1303;22579;-62
2024/03/15 04:21:55;;;;;;;49.00;30.70;;;;;;;9.46;84.68;100561.09;105819;1320;22581;-61
2024/03/15 04:24:22;;;;;;;48.90;32.40;;;;;;;9.47;84.53;100561.77;105857;1313;23074;-60
2024/03/15 04:26:48;;;;;;;49.10;31.80;;;;;;;9.48;84.52;100558.66;106963;1314;22188;-62
2024/03/15 04:29:13;;;;;;;53.70;32.60;;;;;;;9.48;84.48;100557.80;107016;1302;22265;-61
2024/03/15 04:31:40;;;;;;;48.50;31.00;;;;;;;9.47;84.39;100557.98;105855;1315;22576;-62
2024/03/15 04:34:05;;;;;;;50.90;32.40;;;;;;;9.47;84.41;100558.51;105784;1320;22596;-61
2024/03/15 04:36:31;;;;;;;52.80;32.80;;;;;;;9.46;84.31;100558.17;105853;1320;25974;-62
2024/03/15 04:38:58;;;;;;;46.60;31.80;;;;;;;9.44;84.26;100556.98;105885;1298;24209;-62
2024/03/15 04:41:25;;;;;;;53.80;32.10;;;;;;;9.43;84.29;100554.60;105918;1319;22659;-60
2024/03/15 04:43:51;;;;;;;54.40;32.70;;;;;;;9.41;84.27;100552.55;105986;1297;22624;-62
2024/03/15 04:46:17;;;;;;;53.90;33.40;;;;;;;9.40;84.21;100552.56;105882;1313;22682;-62
2024/03/15 04:48:44;;;;;;;51.50;32.50;;;;;;;9.39;84.21;100555.16;105859;1298;22581;-62
2024/03/15 04:51:10;;;;;;;54.00;33.60;;;;;;;9.38;84.16;100551.91;105805;1303;23895;-61
2024/03/15 04:53:37;;;;;;;60.20;32.80;;;;;;;9.36;84.14;100557.09;105860;1320;22585;-62
2024/03/15 04:56:04;;;;;;;55.30;32.10;;;;;;;9.33;84.15;100554.23;105794;1314;22631;-61
2024/03/15 04:58:31;;;;;;;52.10;33.70;;;;;;;9.32;84.09;100555.96;105940;1320;22519;-62
2024/03/15 05:00:57;;;;;;;53.30;32.70;;;;;;;9.32;84.10;100559.40;105896;1301;22640;-62
2024/03/15 05:03:23;;;;;;;50.50;32.60;;;;;;;9.30;84.06;100558.05;105902;1319;23009;-61
2024/03/15 05:05:50;;;;;;;49.20;31.10;;;;;;;9.30;84.02;100560.97;105889;1307;22605;-61
2024/03/15 05:08:15;;;;;;;;;;;;;;;9.28;84.01;100559.96;105862;1313;22768;-62
2024/03/15 05:10:41;;;;;;;50.10;32.00;;;;;;;9.26;83.97;100561.02;105771;1297;22609;-61
2024/03/15 05:13:06;;;;;;;49.10;30.90;;;;;;;9.25;83.92;100561.54;105757;1313;22604;-61
2024/03/15 05:15:35;;;;;;;52.40;33.10;;;;;;;9.23;83.94;100561.21;105839;1320;22555;-61
2024/03/15 05:18:02;;;;;;;56.60;34.20;;;;;;;9.23;83.92;100558.81;105927;1313;22607;-61
2024/03/15 05:20:28;;;;;;;;;;;;;;;9.23;83.86;100558.13;105813;1302;22576;-62
2024/03/15 05:22:53;;;;;;;52.10;34.00;;;;;;;9.20;83.84;100558.34;105758;1319;22920;-61
2024/03/15 05:25:19;;;;;;;54.90;33.60;;;;;;;9.19;83.78;100561.27;105866;1313;23361;-61
2024/03/15 05:27:45;;;;;;;50.30;31.70;;;;;;;9.18;83.68;100556.29;105814;1314;22600;-61
2024/03/15 05:30:17;;;;;;;52.70;32.90;;;;;;;9.19;83.66;100560.41;105727;1303;22109;-62
2024/03/15 05:32:43;;;;;;;52.40;31.60;;;;;;;9.19;83.62;100556.10;105723;1313;22574;-60
2024/03/15 05:35:08;;;;;;;54.30;32.80;;;;;;;9.20;83.64;100559.70;105165;1316;22530;-60
2024/03/15 05:37:34;;;;;;;54.90;32.90;;;;;;;9.23;83.40;100561.40;105702;1316;22502;-61
2024/03/15 05:40:00;;;;;;;53.40;33.30;;;;;;;9.24;83.45;100560.36;105693;1297;22540;-61
2024/03/15 05:42:31;;;;;;;51.00;33.30;;;;;;;9.26;83.38;100561.19;105810;1313;23051;-62
2024/03/15 05:44:57;;;;;;;50.60;32.40;;;;;;;9.26;82.95;100555.85;105485;1319;22610;-61
2024/03/15 05:47:22;;;;;;;55.00;32.60;;;;;;;9.28;83.09;100558.07;105720;1313;22683;-62
2024/03/15 05:49:48;;;;;;;46.90;31.10;;;;;;;9.28;82.90;100555.14;105849;1303;22606;-62
2024/03/15 05:52:14;;;;;;;52.30;31.30;;;;;;;9.31;83.10;100558.89;105867;1297;22614;-61
2024/03/15 05:54:40;;;;;;;50.90;32.90;;;;;;;9.33;82.65;100557.33;105825;1320;22224;-61
2024/03/15 05:57:06;;;;;;;52.60;33.70;;;;;;;9.34;82.79;100555.08;105731;1320;24276;-61
2024/03/15 05:59:37;;;;;;;49.00;31.90;;;;;;;9.37;82.91;100553.81;105792;1316;24302;-62
2024/03/15 06:02:02;;;;;;;47.50;31.10;;;;;;;9.40;82.52;100551.02;105229;1303;22796;-59
2024/03/15 06:04:28;;;;;;;51.00;32.50;;;;;;;9.41;82.36;100546.19;100260;1313;5007974;-61
2024/03/15 06:06:55;;;;;;;44.50;30.50;;;;;;;9.42;81.91;100542.74;104036;1313;23445;-62
2024/03/15 06:09:20;;;;;;;;;;;;;;;9.43;82.22;100542.55;104762;1313;22501;-60
2024/03/15 06:11:48;;;;;;;47.60;31.00;;;;;;;9.45;82.14;100541.33;104647;1306;22657;-59
2024/03/15 06:14:14;;;;;;;49.20;32.80;;;;;;;9.47;81.77;100540.61;104867;1313;22734;-61
2024/03/15 06:16:40;;;;;;;48.50;32.50;;;;;;;9.49;82.01;100539.89;104736;1319;22607;-62
2024/03/15 06:19:06;;;;;;;45.00;31.10;;;;;;;9.51;82.02;100538.15;105181;1320;22626;-62
2024/03/15 06:21:33;;;;;;;47.40;31.00;;;;;;;9.53;81.85;100538.29;105311;1301;22653;-63
2024/03/15 06:24:03;;;;;;;49.10;31.70;;;;;;;9.56;81.68;100539.63;105073;1320;25270;-61
2024/03/15 06:26:29;;;;;;;47.30;31.00;;;;;;;9.57;81.92;100539.79;105041;1314;22642;-62
2024/03/15 06:28:55;;;;;;;51.20;32.50;;;;;;;9.60;82.10;100539.06;104919;1313;25681;-62
2024/03/15 06:31:21;;;;;;;47.30;31.40;;;;;;;9.65;81.90;100540.89;104726;1313;24267;-62
2024/03/15 06:33:49;;;;;;;47.50;31.80;;;;;;;9.67;81.55;100538.80;105011;1320;22602;-63
2024/03/15 06:36:19;;;;;;;45.50;30.90;;;;;;;9.69;81.36;100538.27;105036;1320;22692;-60
2024/03/15 06:41:37;;;;;;;49.40;31.50;;;;;;;9.75;80.87;100529.05;106137;1297;22849;-61
2024/03/15 06:44:19;;;;;;;51.20;31.30;;;;;;;9.81;80.87;100526.91;105425;1314;22601;-63
2024/03/15 06:47:15;;;;;;;52.40;31.20;;;;;;;9.88;80.62;100529.02;105075;1313;22611;-62
2024/03/15 06:49:44;;;;;;;48.00;31.60;;;;;;;9.96;81.06;100526.14;105355;1316;26231;-62
2024/03/15 06:55:06;;;;;;;49.60;31.60;;;;;;;10.09;80.62;100515.60;105212;1316;22600;-63
2024/03/15 06:57:32;;;;;;;50.30;31.50;;;;;;;10.15;80.43;100512.23;105340;1306;22719;-62
2024/03/15 07:00:00;;;;;;;47.80;31.70;;;;;;;10.18;78.90;100519.59;104981;1312;22527;-63
2024/03/15 07:02:26;;;;;;;49.10;32.20;;;;;;;10.20;79.41;100514.08;105401;1303;22706;-63
2024/03/15 07:05:40;;;;;;;46.30;31.40;;;;;;;10.31;78.92;100515.98;105712;1297;545685;-60
2024/03/15 07:08:06;;;;;;;48.50;31.10;;;;;;;10.36;79.34;100514.34;105420;1311;22541;-60
2024/03/15 07:10:32;;;;;;;47.00;30.60;;;;;;;10.43;78.84;100512.64;105892;1310;22610;-61
2024/03/15 07:12:57;;;;;;;47.80;30.40;;;;;;;10.53;79.36;100507.30;106089;1316;23269;-61
2024/03/15 07:15:23;;;;;;;44.60;30.80;;;;;;;10.61;78.38;100509.39;105985;1298;22620;-61
2024/03/15 07:17:48;;;;;;;44.30;30.50;;;;;;;10.70;78.38;100508.04;105795;1316;23442;-61
2024/03/15 07:20:14;;;;;;;46.00;31.50;;;;;;;10.77;77.77;100507.57;105967;1309;339876;-61
2024/03/15 07:22:46;;;;;;;48.20;31.00;;;;;;;10.90;78.20;100503.69;106218;1311;22522;-61
2024/03/15 07:25:13;;;;;;;48.20;30.90;;;;;;;11.07;78.11;100504.55;101641;1304;5309343;-61
2024/03/15 07:27:39;;;;;;;45.30;31.40;;;;;;;11.22;76.23;100502.17;106235;1313;23832;-60
2024/03/15 07:30:05;;;;;;;42.80;30.00;;;;;;;11.37;77.65;100502.91;106111;1319;24469;-61
2024/03/15 07:32:31;;;;;;;43.30;29.40;;;;;;;11.58;78.20;100502.09;106145;1319;22553;-62
2024/03/15 07:34:57;;;;;;;44.70;30.20;;;;;;;11.84;75.21;100498.77;106119;1298;24309;-59
2024/03/15 07:37:23;;;;;;;43.70;29.50;;;;;;;12.05;76.51;100499.48;105903;1316;22834;-60
2024/03/15 07:39:48;;;;;;;39.70;29.10;;;;;;;12.22;75.13;100499.05;105634;1314;22646;-59
2024/03/15 07:42:14;;;;;;;39.20;28.90;;;;;;;12.40;75.53;100495.48;105348;1313;22991;-61
2024/03/15 07:44:40;;;;;;;37.10;28.00;;;;;;;12.68;75.25;100497.33;105655;1320;22984;-61
2024/03/15 07:47:06;;;;;;;40.00;28.80;;;;;;;12.97;75.10;100497.40;105568;1300;22594;-58
2024/03/15 07:49:33;;;;;;;37.30;26.60;;;;;;;13.16;74.53;100497.38;105550;1307;22587;-62
2024/03/15 07:51:59;;;;;;;37.30;27.00;;;;;;;13.31;75.32;100496.45;105429;1312;22367;-59
2024/03/15 07:54:25;;;;;;;36.90;25.40;;;;;;;13.37;74.82;100501.28;105516;1314;22639;-60
2024/03/15 07:56:54;;;;;;;38.60;24.60;;;;;;;13.41;73.11;100502.90;105401;1303;22532;-62
2024/03/15 07:59:20;;;;;;;35.80;25.20;;;;;;;13.37;70.43;100512.89;105245;1321;23942;-61
2024/03/15 08:01:46;;;;;;;34.70;26.00;;;;;;;13.32;71.16;100507.85;105222;1313;22579;-60
2024/03/15 08:04:12;;;;;;;34.00;24.90;;;;;;;13.31;70.34;100504.08;105205;1297;25892;-62
2024/03/15 08:06:38;;;;;;;34.10;24.80;;;;;;;13.22;69.55;100506.56;105389;1303;22559;-62
2024/03/15 08:09:05;;;;;;;33.30;24.40;;;;;;;13.16;70.11;100512.44;105575;1304;22618;-61
2024/03/15 08:11:34;;;;;;;33.30;24.20;;;;;;;13.08;69.67;100504.84;106885;1309;22676;-62
2024/03/15 08:14:02;;;;;;;35.90;24.90;;;;;;;13.15;70.66;100504.68;105950;1310;22572;-60
2024/03/15 08:16:35;;;;;;;38.30;23.60;;;;;;;13.21;70.14;100504.85;105767;1298;22581;-61
2024/03/15 08:19:10;;;;;;;34.90;24.30;;;;;;;13.31;69.17;100502.67;105846;1308;22696;-60
2024/03/15 08:21:38;;;;;;;38.40;25.50;;;;;;;13.34;68.76;100500.87;107238;1310;22297;-61
2024/03/15 08:24:05;;;;;;;37.70;24.40;;;;;;;13.41;69.27;100502.56;106166;1301;22548;-62
2024/03/15 08:26:32;;;;;;;36.60;24.00;;;;;;;13.52;68.40;100500.84;106093;1297;22890;-61
2024/03/15 08:28:58;;;;;;;;;;;;;;;13.62;68.29;100496.52;106416;1313;22690;-61
2024/03/15 08:31:23;;;;;;;33.30;21.90;;;;;;;13.72;64.76;100495.69;105848;1310;23102;-62
2024/03/15 08:33:49;;;;;;;32.70;23.30;;;;;;;13.84;66.24;100494.65;105587;1298;22657;-60
2024/03/15 08:36:14;;;;;;;30.10;20.70;;;;;;;13.98;67.29;100490.20;105593;1292;22602;-60
2024/03/15 08:38:40;;;;;;;28.70;21.10;;;;;;;14.14;66.54;100489.15;105564;1315;22534;-61
2024/03/15 08:41:06;;;;;;;32.00;22.00;;;;;;;14.20;66.68;100488.09;105676;1310;23871;-61
2024/03/15 08:43:32;;;;;;;31.30;21.00;;;;;;;14.27;66.55;100488.02;105727;1310;22574;-60
2024/03/15 08:45:59;;;;;;;27.30;18.80;;;;;;;14.47;64.16;100484.96;105828;1309;22604;-60
2024/03/15 08:48:30;;;;;;;26.20;19.00;;;;;;;14.61;65.20;100485.48;105685;1297;23811;-58
2024/03/15 08:50:58;;;;;;;24.30;18.40;;;;;;;14.69;64.24;100486.59;106113;1315;23379;-61
2024/03/15 08:53:27;;;;;;;25.40;19.30;;;;;;;14.70;63.14;100486.05;105763;1309;22856;-61
2024/03/15 08:55:53;;;;;;;24.50;19.60;;;;;;;14.76;63.78;100485.30;105871;1308;23908;-61
2024/03/15 08:58:19;;;;;;;24.80;19.50;;;;;;;14.91;62.87;100482.67;106038;1298;23121;-62
2024/03/15 09:00:44;;;;;;;30.00;19.00;;;;;;;15.20;64.03;100478.33;106100;1310;22753;-61
2024/03/15 09:03:10;;;;;;;40.00;20.00;;;;;;;15.47;60.39;100476.92;106165;1300;22932;-61
2024/03/15 09:05:38;;;;;;;26.40;18.50;;;;;;;15.73;60.84;100475.58;106192;1310;22647;-61
2024/03/15 09:08:06;;;;;;;40.50;22.90;;;;;;;16.18;61.19;100477.21;106521;1297;22615;-62
2024/03/15 09:10:33;;;;;;;136.30;28.20;;;;;;;16.47;59.49;100475.98;106273;1316;22628;-61
2024/03/15 09:12:59;;;;;;;36.80;20.90;;;;;;;16.92;58.14;100477.33;106157;1316;22670;-61
2024/03/15 09:15:26;;;;;;;189.00;30.00;;;;;;;17.37;60.88;100476.33;106120;1309;22925;-61
2024/03/15 09:17:52;;;;;;;464.60;40.80;;;;;;;18.02;58.24;100474.45;105917;1297;22966;-62
2024/03/15 09:20:27;;;;;;;323.40;34.60;;;;;;;18.47;57.34;100472.34;106054;1310;22725;-61
2024/03/15 09:22:53;;;;;;;162.90;30.10;;;;;;;18.75;54.20;100480.52;106493;1301;22555;-61
2024/03/15 09:25:22;;;;;;;425.90;52.40;;;;;;;18.92;54.73;100477.35;106697;1310;23174;-59
2024/03/15 09:27:52;;;;;;;710.10;60.10;;;;;;;19.03;52.79;100479.36;106061;1296;22605;-62
2024/03/15 09:30:34;;;;;;;513.40;45.70;;;;;;;19.28;55.11;100479.58;105955;1313;23103;-61
2024/03/15 09:33:00;;;;;;;431.60;47.50;;;;;;;19.95;52.90;100475.14;105872;1305;22626;-62
2024/03/15 09:35:26;;;;;;;468.80;49.50;;;;;;;20.24;50.24;100471.89;106169;1310;23272;-61
2024/03/15 09:37:51;;;;;;;713.00;58.00;;;;;;;20.75;52.39;100470.24;106257;1297;22609;-62
2024/03/15 09:40:27;;;;;;;477.30;46.90;;;;;;;21.58;52.73;100470.52;106163;1309;22604;-62
2024/03/15 09:42:54;;;;;;;603.40;53.00;;;;;;;22.24;49.72;100465.61;107163;1315;22373;-62
2024/03/15 09:45:26;;;;;;;446.50;50.40;;;;;;;22.43;47.00;100465.90;107200;1309;22317;-61
2024/03/15 09:47:53;;;;;;;507.80;57.90;;;;;;;22.58;48.25;100465.77;107205;1295;22351;-63
2024/03/15 09:50:29;;;;;;;810.50;72.10;;;;;;;23.02;44.72;100468.00;107257;1313;23358;-62
2024/03/15 09:52:56;;;;;;;674.20;59.00;;;;;;;23.32;46.22;100466.36;107274;1315;22353;-63
2024/03/15 09:55:22;;;;;;;953.80;90.20;;;;;;;23.35;43.98;100465.33;107210;1313;22267;-62
2024/03/15 09:57:50;;;;;;;463.30;52.00;;;;;;;23.42;43.95;100462.99;107181;1292;22394;-63
2024/03/15 10:00:17;;;;;;;540.60;67.10;;;;;;;23.31;43.31;100463.83;107174;1315;22572;-63
2024/03/15 10:02:51;;;;;;;651.60;54.60;;;;;;;22.76;42.95;100458.37;107168;1315;22532;-63
2024/03/15 10:05:20;;;;;;;427.70;51.20;;;;;;;22.58;41.32;100455.22;107262;1310;22332;-62
2024/03/15 10:07:47;;;;;;;460.00;50.20;;;;;;;22.55;43.79;100449.66;107174;1295;22292;-63
2024/03/15 10:10:13;;;;;;;;;;;;;;;22.95;43.54;100449.17;107219;1298;22849;-63
2024/03/15 10:12:44;;;;;;;449.20;76.40;;;;;;;23.15;44.11;100449.68;107283;1315;22339;-63
2024/03/15 10:15:12;;;;;;;569.20;59.10;;;;;;;23.35;42.15;100446.59;107291;1315;22474;-63
2024/03/15 10:17:43;;;;;;;568.10;55.20;;;;;;;23.60;42.61;100443.92;107285;1314;22351;-61
2024/03/15 10:20:25;;;;;;;573.60;61.50;;;;;;;23.62;39.35;100442.38;107153;1297;22364;-63
2024/03/15 10:22:53;;;;;;;998.80;69.60;;;;;;;23.49;39.73;100440.50;107271;1308;22319;-63
2024/03/15 10:25:21;;;;;;;407.50;51.60;;;;;;;23.53;39.96;100439.52;107127;1308;22859;-62
2024/03/15 10:27:54;;;;;;;598.70;57.40;;;;;;;23.44;40.52;100440.20;107387;1310;22085;-62
2024/03/15 10:30:24;;;;;;;416.10;50.80;;;;;;;23.73;41.90;100435.23;107306;1297;22321;-62
2024/03/15 10:32:55;;;;;;;650.90;54.30;;;;;;;23.44;40.65;100436.64;107315;1315;22284;-61
2024/03/15 10:35:27;;;;;;;496.00;57.30;;;;;;;23.52;41.07;100434.71;107306;1310;22342;-62
2024/03/15 10:37:54;;;;;;;511.00;49.70;;;;;;;23.39;40.22;100433.88;106945;1312;22602;-62
2024/03/15 10:40:23;;;;;;;439.80;48.30;;;;;;;23.19;38.94;100436.52;106486;1300;22586;-61
2024/03/15 10:42:54;;;;;;;275.60;46.00;;;;;;;22.93;40.02;100434.19;106757;1315;22559;-62
2024/03/15 10:45:21;;;;;;;732.70;62.50;;;;;;;22.65;39.83;100434.02;106730;1309;22582;-62
2024/03/15 10:47:47;;;;;;;647.60;55.50;;;;;;;22.64;40.34;100431.96;106714;1315;22572;-62
2024/03/15 10:50:16;;;;;;;291.90;38.90;;;;;;;22.45;40.55;100432.42;106602;1297;22969;-62
2024/03/15 10:52:50;;;;;;;480.70;49.40;;;;;;;22.24;40.05;100428.09;106615;1315;22624;-62
2024/03/15 10:55:18;;;;;;;470.60;62.80;;;;;;;22.08;39.59;100429.30;106645;1309;22669;-62
2024/03/15 10:57:44;;;;;;;298.30;41.10;;;;;;;22.01;39.69;100431.67;106270;1310;22547;-63
2024/03/15 11:00:26;;;;;;;489.40;46.80;;;;;;;21.72;40.57;100429.55;105683;1294;23249;-62
2024/03/15 11:02:56;;;;;;;561.30;46.00;;;;;;;21.78;40.76;100425.30;107255;1310;23184;-62
2024/03/15 11:05:24;;;;;;;202.50;31.80;;;;;;;21.68;40.38;100425.81;107259;1311;22286;-62
2024/03/15 11:08:04;;;;;;;214.30;32.60;;;;;;;21.61;40.55;100420.16;107247;1314;23123;-62
2024/03/15 11:10:31;;;;;;;360.40;48.10;;;;;;;21.57;41.28;100416.52;107316;1295;22323;-61
2024/03/15 11:13:01;;;;;;;415.20;44.60;;;;;;;21.53;40.51;100414.48;107325;1308;22623;-62
2024/03/15 11:15:33;;;;;;;152.80;29.60;;;;;;;21.51;40.65;100412.20;107229;1309;22421;-62